Time;durP1;ratioP1;P1;durP2;ratioP2;P2;SDS_P1;SDS_P2;PMS_P1;PMS_P2;Temp;Humidity;BMP_temperature;BMP_pressure;BME280_temperature;BME280_humidity;BME280_pressure;Samples;Min_cycle;Max_cycle;Signal;HPM_P1;HPM_P2
2023/09/27 00:01:05;;;;;;;8.45;6.47;;;;;;;13.75;92.84;101887.75;4941549;29;20117;-80
2023/09/27 00:03:30;;;;;;;9.18;6.93;;;;;;;13.72;93.80;101895.66;4937792;29;20027;-81
2023/09/27 00:05:55;;;;;;;8.52;6.40;;;;;;;13.70;93.79;101897.44;4936948;29;20552;-80
2023/09/27 00:08:21;;;;;;;8.50;6.50;;;;;;;13.67;94.25;101910.56;4941280;29;20083;-80
2023/09/27 00:10:46;;;;;;;14.50;6.38;;;;;;;13.67;94.03;101913.19;4943168;29;20082;-80
2023/09/27 00:13:11;;;;;;;9.73;6.70;;;;;;;13.65;94.10;101915.00;4943013;29;20059;-81
2023/09/27 00:15:37;;;;;;;8.85;6.22;;;;;;;13.65;94.71;101917.63;4940155;29;20035;-81
2023/09/27 00:18:04;;;;;;;9.18;6.43;;;;;;;13.61;94.61;101922.03;4946757;29;20023;-81
2023/09/27 00:20:30;;;;;;;7.82;5.78;;;;;;;13.62;95.27;101922.91;4945559;28;20070;-80
2023/09/27 00:22:55;;;;;;;8.90;6.38;;;;;;;13.63;95.47;101922.00;4942510;28;20031;-80
2023/09/27 00:25:21;;;;;;;9.23;6.40;;;;;;;13.63;95.40;101929.84;4947548;28;20122;-81
2023/09/27 00:27:46;;;;;;;9.70;6.43;;;;;;;13.61;94.83;101924.66;4944983;29;20031;-80
2023/09/27 00:30:17;;;;;;;10.18;6.88;;;;;;;13.60;94.44;101924.69;4943166;28;20034;-81
2023/09/27 00:32:45;;;;;;;8.73;6.28;;;;;;;13.57;94.91;101929.97;4938752;29;20023;-80
2023/09/27 00:35:18;;;;;;;9.65;6.38;;;;;;;13.54;94.90;101925.69;4938802;28;20127;-81
2023/09/27 00:37:48;;;;;;;9.15;6.32;;;;;;;13.51;94.91;101921.34;4939883;29;20111;-81
2023/09/27 00:40:15;;;;;;;7.88;6.03;;;;;;;13.50;94.53;101916.19;4944374;28;20027;-81
2023/09/27 00:42:40;;;;;;;12.50;6.80;;;;;;;13.47;94.44;101913.63;4943008;29;20066;-81
2023/09/27 00:45:06;;;;;;;12.55;7.43;;;;;;;13.44;94.63;101919.78;4947610;29;20051;-80
2023/09/27 00:47:32;;;;;;;15.95;7.60;;;;;;;13.40;94.86;101919.84;4945051;29;20035;-81
2023/09/27 00:49:58;;;;;;;12.27;7.30;;;;;;;13.38;95.31;101919.00;4948358;29;20023;-81
2023/09/27 00:52:23;;;;;;;10.13;6.70;;;;;;;13.38;95.28;101914.63;4953444;29;20463;-81
2023/09/27 00:54:50;;;;;;;9.73;6.63;;;;;;;13.36;95.32;101912.06;4947318;28;20498;-81
2023/09/27 00:57:16;;;;;;;15.25;6.88;;;;;;;13.36;94.90;101912.06;4948708;28;20499;-80
2023/09/27 00:59:41;;;;;;;9.30;6.70;;;;;;;13.33;94.97;101922.56;4947109;28;20073;-80
2023/09/27 01:02:07;;;;;;;9.30;5.95;;;;;;;13.31;95.13;101907.81;4946323;29;20040;-81
2023/09/27 01:04:32;;;;;;;9.95;6.00;;;;;;;13.30;94.70;101906.94;4949539;29;20070;-81
2023/09/27 01:06:59;;;;;;;9.43;6.28;;;;;;;13.27;94.63;101907.00;4951360;28;20062;-81
2023/09/27 01:09:24;;;;;;;9.25;6.20;;;;;;;13.23;94.61;101909.72;4946680;29;20035;-80
2023/09/27 01:11:50;;;;;;;7.97;6.00;;;;;;;13.19;94.88;101903.69;4948618;28;20031;-81
2023/09/27 01:14:15;;;;;;;7.38;5.97;;;;;;;13.16;95.11;101909.81;4945799;28;20476;-81
2023/09/27 01:16:41;;;;;;;8.57;6.18;;;;;;;13.14;95.09;101901.19;4946928;28;20534;-80
2023/09/27 01:19:06;;;;;;;7.15;5.65;;;;;;;13.15;94.57;101902.03;4944619;29;20039;-81
2023/09/27 01:21:31;;;;;;;7.90;6.32;;;;;;;13.10;94.90;101896.91;4946582;29;20490;-81
2023/09/27 01:23:57;;;;;;;7.95;5.82;;;;;;;13.08;94.73;101906.50;4945464;29;20064;-81
2023/09/27 01:26:23;;;;;;;7.97;6.47;;;;;;;13.07;94.90;101886.50;4944475;28;20106;-80
2023/09/27 01:28:48;;;;;;;8.35;5.60;;;;;;;13.06;95.23;101892.63;4951229;29;20027;-80
2023/09/27 01:31:14;;;;;;;7.45;6.00;;;;;;;13.04;95.40;101890.06;4949629;29;20031;-80
2023/09/27 01:33:40;;;;;;;8.30;5.93;;;;;;;13.04;95.16;101895.28;4945646;29;20105;-80
2023/09/27 01:36:07;;;;;;;6.93;5.22;;;;;;;13.02;94.82;101889.22;4948643;29;20038;-81
2023/09/27 01:38:33;;;;;;;7.97;5.55;;;;;;;12.99;94.58;101880.56;4950092;29;20038;-80
2023/09/27 01:40:58;;;;;;;10.65;6.10;;;;;;;12.96;94.92;101863.19;4947754;28;20390;-80
2023/09/27 01:43:24;;;;;;;6.60;5.43;;;;;;;12.94;94.74;101859.75;4947218;28;20059;-80
2023/09/27 01:45:49;;;;;;;7.25;5.20;;;;;;;12.92;94.61;101863.28;4952143;29;20039;-80
2023/09/27 01:48:15;;;;;;;9.32;5.30;;;;;;;12.87;95.65;101861.63;4948670;29;20465;-81
2023/09/27 01:50:41;;;;;;;6.75;5.18;;;;;;;12.87;95.64;101855.56;4945429;29;20042;-80
2023/09/27 01:53:06;;;;;;;7.38;5.35;;;;;;;12.88;95.59;101858.13;4947471;28;20432;-80
2023/09/27 01:55:32;;;;;;;6.95;5.05;;;;;;;12.87;95.58;101856.41;4948449;29;20063;-80
2023/09/27 01:57:57;;;;;;;8.32;5.88;;;;;;;12.85;95.52;101860.78;4947652;28;20111;-80
2023/09/27 02:00:23;;;;;;;6.55;5.00;;;;;;;12.82;95.18;101860.84;4945279;29;20045;-80
2023/09/27 02:02:51;;;;;;;7.32;5.68;;;;;;;12.82;95.88;101873.91;4946712;28;20111;-80
2023/09/27 02:05:16;;;;;;;6.88;5.20;;;;;;;12.81;95.39;101869.56;4949644;28;20043;-80
2023/09/27 02:07:42;;;;;;;8.05;4.95;;;;;;;12.78;95.50;101872.25;4948620;29;20032;-80
2023/09/27 02:10:09;;;;;;;7.13;5.15;;;;;;;12.75;96.01;101878.38;4950200;29;20027;-80
2023/09/27 02:12:36;;;;;;;6.97;5.38;;;;;;;12.74;96.16;101875.81;4945451;28;20063;-80
2023/09/27 02:15:02;;;;;;;7.97;5.60;;;;;;;12.71;95.90;101860.19;4945626;29;20028;-80
2023/09/27 02:17:27;;;;;;;11.13;5.60;;;;;;;12.71;95.37;101862.78;4945937;29;20102;-81
2023/09/27 02:19:52;;;;;;;7.53;5.07;;;;;;;12.70;95.38;101863.69;4943600;29;20046;-80
2023/09/27 02:22:18;;;;;;;7.43;4.95;;;;;;;12.69;95.73;101868.06;4947877;29;20023;-80
2023/09/27 02:24:44;;;;;;;7.57;4.97;;;;;;;12.71;96.02;101870.63;4944734;28;20436;-80
2023/09/27 02:27:10;;;;;;;7.60;5.22;;;;;;;12.71;95.59;101865.41;4945963;28;20399;-80
2023/09/27 02:29:37;;;;;;;8.52;5.07;;;;;;;12.69;95.36;101862.84;4945233;29;20062;-80
2023/09/27 02:32:02;;;;;;;9.40;5.88;;;;;;;12.69;95.67;101877.63;4942723;29;20082;-80
2023/09/27 02:34:28;;;;;;;7.78;5.57;;;;;;;12.68;95.82;101875.91;4945348;29;20516;-81
2023/09/27 02:36:53;;;;;;;8.18;5.15;;;;;;;12.69;95.67;101872.41;4944421;29;20031;-80
2023/09/27 02:39:18;;;;;;;8.55;5.30;;;;;;;12.66;95.43;101856.78;4944277;29;20419;-80
2023/09/27 02:41:43;;;;;;;9.23;6.03;;;;;;;12.65;95.55;101871.59;4951995;29;20027;-80
2023/09/27 02:44:09;;;;;;;6.78;5.30;;;;;;;12.64;95.71;101874.25;4948169;29;20027;-80
2023/09/27 02:46:34;;;;;;;9.10;6.05;;;;;;;12.60;96.07;101887.34;4946565;29;20387;-80
2023/09/27 02:48:59;;;;;;;7.63;5.07;;;;;;;12.59;95.45;101877.81;4945508;28;20035;-80
2023/09/27 02:51:24;;;;;;;6.70;4.75;;;;;;;12.58;95.06;101868.25;4945136;29;20039;-80
2023/09/27 02:53:50;;;;;;;6.47;4.78;;;;;;;12.56;95.46;101867.41;4942110;29;20061;-80
2023/09/27 02:56:16;;;;;;;8.98;5.18;;;;;;;12.54;95.68;101868.34;4947877;29;20039;-80
2023/09/27 02:58:44;;;;;;;8.43;5.45;;;;;;;12.51;96.25;101869.22;4949263;28;20032;-80
2023/09/27 03:01:09;;;;;;;8.48;5.47;;;;;;;12.50;96.12;101870.13;4941174;28;20028;-81
2023/09/27 03:03:35;;;;;;;6.82;4.90;;;;;;;12.48;95.43;101879.72;4940534;28;20039;-80
2023/09/27 03:06:00;;;;;;;6.45;4.82;;;;;;;12.49;96.11;101860.56;4941738;29;20400;-80
2023/09/27 03:08:25;;;;;;;6.32;4.85;;;;;;;12.49;95.93;101871.00;4947112;29;20027;-80
2023/09/27 03:10:51;;;;;;;9.30;5.10;;;;;;;12.48;96.57;101869.28;4944000;28;20043;-80
2023/09/27 03:13:16;;;;;;;7.32;5.03;;;;;;;12.48;96.71;101864.06;4944291;28;20027;-80
2023/09/27 03:15:43;;;;;;;9.45;5.60;;;;;;;12.49;96.59;101871.00;4944493;29;20025;-80
2023/09/27 03:18:09;;;;;;;8.80;6.18;;;;;;;12.47;95.95;101864.09;4945010;29;20386;-80
2023/09/27 03:20:36;;;;;;;8.63;6.20;;;;;;;12.45;96.43;101864.97;4939056;29;20036;-80
2023/09/27 03:23:01;;;;;;;7.28;5.53;;;;;;;12.47;96.51;101862.34;4945276;28;20031;-80
2023/09/27 03:25:26;;;;;;;11.57;5.80;;;;;;;12.45;96.94;101864.13;4941401;29;21264;-80
2023/09/27 03:27:52;;;;;;;9.68;5.88;;;;;;;12.42;96.21;101865.03;4941428;28;20034;-80
2023/09/27 03:30:17;;;;;;;10.75;6.00;;;;;;;12.39;96.21;101874.66;4943214;29;20036;-80
2023/09/27 03:32:43;;;;;;;11.07;5.68;;;;;;;12.36;96.74;101875.59;4943255;29;20554;-80
2023/09/27 03:35:08;;;;;;;8.45;5.63;;;;;;;12.38;97.17;101883.38;4943136;28;20074;-80
2023/09/27 03:37:34;;;;;;;12.25;6.30;;;;;;;12.39;96.87;101885.09;4947068;29;20106;-80
2023/09/27 03:40:00;;;;;;;9.27;5.78;;;;;;;12.38;97.03;101892.06;4944480;29;20527;-80
2023/09/27 03:42:26;;;;;;;8.63;5.90;;;;;;;12.38;97.21;101897.28;4946532;29;20503;-80
2023/09/27 03:44:54;;;;;;;9.75;6.28;;;;;;;12.38;97.46;101892.06;4943745;29;20024;-80
2023/09/27 03:47:20;;;;;;;9.70;6.25;;;;;;;12.38;96.90;101899.88;4943367;28;20112;-80
2023/09/27 03:49:45;;;;;;;8.68;6.40;;;;;;;12.36;97.11;101895.59;4943017;29;20031;-80
2023/09/27 03:52:11;;;;;;;8.45;6.20;;;;;;;12.36;97.27;101900.81;4947337;28;20032;-80
2023/09/27 03:54:36;;;;;;;11.20;6.07;;;;;;;12.34;96.60;101894.75;4947634;29;20038;-80
2023/09/27 03:57:01;;;;;;;9.32;6.28;;;;;;;12.31;96.68;101893.06;4945267;29;20455;-80
2023/09/27 03:59:27;;;;;;;9.52;6.25;;;;;;;12.29;96.67;101894.84;4943698;29;20089;-81
2023/09/27 04:01:52;;;;;;;9.65;6.05;;;;;;;12.26;96.52;101892.25;4944054;29;21179;-80
2023/09/27 04:04:18;;;;;;;8.93;5.80;;;;;;;12.24;96.42;101892.31;4947036;28;20019;-80
2023/09/27 04:06:44;;;;;;;7.97;5.60;;;;;;;12.21;96.78;101897.56;4946978;28;20044;-80
2023/09/27 04:09:10;;;;;;;10.90;6.55;;;;;;;12.19;96.97;101894.09;4941765;29;20207;-80
2023/09/27 04:11:36;;;;;;;12.90;6.55;;;;;;;12.19;97.01;101896.72;4942970;29;20118;-80
2023/09/27 04:14:01;;;;;;;11.23;6.00;;;;;;;12.19;97.18;101907.16;4938992;28;20039;-80
2023/09/27 04:16:30;;;;;;;12.90;6.40;;;;;;;12.16;96.97;101908.97;4947570;29;20036;-80
2023/09/27 04:18:56;;;;;;;11.38;6.32;;;;;;;12.13;96.87;101909.84;4950222;28;20372;-80
2023/09/27 04:21:22;;;;;;;10.05;6.05;;;;;;;12.11;96.38;101914.25;4952616;28;20463;-80
2023/09/27 04:23:54;;;;;;;10.90;5.45;;;;;;;12.11;96.24;101912.50;4949558;28;20070;-80
2023/09/27 04:26:19;;;;;;;7.75;4.75;;;;;;;12.10;96.16;101923.81;4942180;28;20027;-80
2023/09/27 04:28:45;;;;;;;8.18;5.30;;;;;;;12.06;96.42;101914.28;4952893;29;20093;-80
2023/09/27 04:31:10;;;;;;;8.20;5.05;;;;;;;12.08;96.22;101906.47;4951010;28;20065;-80
2023/09/27 04:33:35;;;;;;;7.75;5.00;;;;;;;12.04;96.09;101900.41;4948755;29;20122;-80
2023/09/27 04:36:00;;;;;;;10.20;5.25;;;;;;;12.02;96.03;101906.53;4948837;28;20494;-80
2023/09/27 04:38:26;;;;;;;9.98;5.70;;;;;;;12.00;96.04;101914.41;4949916;28;20058;-80
2023/09/27 04:40:51;;;;;;;10.45;5.50;;;;;;;11.95;96.53;101922.28;4947347;29;20035;-80
2023/09/27 04:43:16;;;;;;;7.82;5.28;;;;;;;11.94;96.71;101917.94;4950728;28;20035;-80
2023/09/27 04:45:42;;;;;;;7.50;5.10;;;;;;;11.93;97.06;101916.22;4944480;29;20536;-80
2023/09/27 04:48:07;;;;;;;9.18;5.45;;;;;;;11.94;97.28;101920.53;4948409;28;20027;-80
2023/09/27 04:50:33;;;;;;;6.95;5.70;;;;;;;11.93;96.99;101928.38;4949445;28;20035;-80
2023/09/27 04:52:59;;;;;;;7.82;5.80;;;;;;;11.91;97.25;101940.56;4950381;28;20082;-80
2023/09/27 04:55:24;;;;;;;9.75;5.47;;;;;;;11.91;97.31;101935.34;4951475;29;20043;-80
2023/09/27 04:57:49;;;;;;;8.43;5.70;;;;;;;11.92;97.00;101934.47;4947212;29;20031;-80
2023/09/27 05:00:22;;;;;;;7.65;5.55;;;;;;;11.90;96.83;101918.84;4947530;29;20035;-80
2023/09/27 05:02:48;;;;;;;7.60;5.65;;;;;;;11.88;97.21;101891.94;4949071;28;20023;-80
2023/09/27 05:05:13;;;;;;;7.72;5.40;;;;;;;11.86;97.30;101885.88;4949939;28;20078;-80
2023/09/27 05:07:39;;;;;;;9.52;5.60;;;;;;;11.85;97.47;101897.19;4952383;29;20035;-80
2023/09/27 05:10:06;;;;;;;8.82;5.80;;;;;;;11.85;97.87;101915.44;4952052;29;20031;-80
2023/09/27 05:12:31;;;;;;;7.55;5.45;;;;;;;11.86;98.21;101925.00;4946881;28;20035;-80
2023/09/27 05:14:58;;;;;;;7.80;5.45;;;;;;;11.87;97.84;101905.00;4949216;29;20110;-81
2023/09/27 05:17:24;;;;;;;7.13;5.18;;;;;;;11.85;97.18;101897.19;4954145;28;20051;-80
2023/09/27 05:19:49;;;;;;;10.15;5.22;;;;;;;11.83;96.99;101901.56;4952333;29;20038;-80
2023/09/27 05:22:19;;;;;;;8.57;5.40;;;;;;;11.81;97.01;101903.31;4950092;29;20027;-80
2023/09/27 05:24:44;;;;;;;7.90;5.82;;;;;;;11.79;97.35;101908.56;4947424;29;20036;-80
2023/09/27 05:27:09;;;;;;;7.75;5.20;;;;;;;11.80;97.86;101909.41;4946336;28;20028;-80
2023/09/27 05:29:35;;;;;;;7.38;5.40;;;;;;;11.82;97.48;101900.72;4947887;29;20179;-80
2023/09/27 05:32:01;;;;;;;8.77;5.88;;;;;;;11.81;97.26;101887.69;4944330;29;20031;-81
2023/09/27 05:34:29;;;;;;;9.00;5.57;;;;;;;11.79;97.18;101890.31;4944647;28;20087;-80
2023/09/27 05:36:54;;;;;;;8.25;6.15;;;;;;;11.79;97.26;101894.66;4944967;29;20086;-80
2023/09/27 05:39:19;;;;;;;9.00;6.00;;;;;;;11.78;97.32;101893.81;4946966;29;20035;-80
2023/09/27 05:41:44;;;;;;;7.93;5.78;;;;;;;11.77;97.28;101892.09;4945101;29;20070;-80
2023/09/27 05:44:10;;;;;;;7.68;5.53;;;;;;;11.77;97.72;101888.63;4943152;29;20498;-80
2023/09/27 05:46:36;;;;;;;9.50;5.40;;;;;;;11.77;97.58;101891.22;4947085;28;20038;-80
2023/09/27 05:49:02;;;;;;;7.97;5.63;;;;;;;11.78;97.40;101887.75;4944830;28;20055;-80
2023/09/27 05:51:30;;;;;;;10.63;6.13;;;;;;;11.77;97.63;101891.22;4943716;28;20023;-80
2023/09/27 05:53:56;;;;;;;10.68;6.22;;;;;;;11.77;97.75;101886.03;4942929;28;20043;-80
2023/09/27 05:56:22;;;;;;;13.07;6.95;;;;;;;11.78;97.81;101887.75;4942345;29;20036;-80
2023/09/27 05:58:47;;;;;;;11.23;6.30;;;;;;;11.79;97.65;101881.63;4945989;29;20052;-80
2023/09/27 06:01:12;;;;;;;10.73;6.00;;;;;;;11.78;97.70;101872.09;4946537;29;20023;-80
2023/09/27 06:03:38;;;;;;;9.90;6.18;;;;;;;11.77;98.24;101880.81;4946761;28;20057;-81
2023/09/27 06:06:04;;;;;;;11.90;5.88;;;;;;;11.80;98.54;101880.75;4939443;29;20042;-80
2023/09/27 06:08:29;;;;;;;10.27;6.28;;;;;;;11.82;98.47;101878.97;4946434;29;20027;-80
2023/09/27 06:10:59;;;;;;;9.50;6.40;;;;;;;11.83;97.69;101870.28;4944996;28;20031;-80
2023/09/27 06:13:25;;;;;;;13.23;6.10;;;;;;;11.84;98.20;101878.09;4937256;28;20062;-80
2023/09/27 06:15:51;;;;;;;12.73;6.85;;;;;;;11.85;98.44;101884.16;4941019;29;20031;-80
2023/09/27 06:18:16;;;;;;;11.23;7.05;;;;;;;11.87;99.05;101882.38;4946381;29;20027;-80
2023/09/27 06:20:41;;;;;;;9.85;6.38;;;;;;;11.90;98.74;101886.69;4938852;29;20023;-80
2023/09/27 06:23:09;;;;;;;9.05;5.97;;;;;;;11.93;98.49;101884.03;4937069;29;20106;-80
2023/09/27 06:25:35;;;;;;;10.30;6.43;;;;;;;11.96;98.66;101878.78;4939268;29;20035;-80
2023/09/27 06:28:01;;;;;;;10.98;6.68;;;;;;;11.98;98.55;101875.28;4950199;29;20027;-80
2023/09/27 06:30:26;;;;;;;10.55;6.80;;;;;;;12.02;98.62;101889.16;4942811;28;20031;-80
2023/09/27 06:32:52;;;;;;;10.48;7.13;;;;;;;12.07;98.91;101883.88;4940221;29;20039;-80
2023/09/27 06:35:17;;;;;;;10.23;7.00;;;;;;;12.13;99.25;101883.75;4939286;29;20051;-82
2023/09/27 06:37:44;;;;;;;8.77;6.90;;;;;;;12.20;99.65;101884.56;4945385;28;20031;-81
2023/09/27 06:40:17;;;;;;;10.65;7.70;;;;;;;12.26;100.00;101882.69;4950520;29;20039;-81
2023/09/27 06:42:45;;;;;;;10.05;7.40;;;;;;;12.34;100.00;101871.25;4944002;29;20027;-81
2023/09/27 06:45:12;;;;;;;9.95;8.00;;;;;;;12.40;100.00;101876.38;4945584;29;20028;-81
2023/09/27 06:47:40;;;;;;;11.32;8.10;;;;;;;12.48;100.00;101869.28;4952263;29;20035;-82
2023/09/27 06:50:08;;;;;;;11.68;8.45;;;;;;;12.56;100.00;101870.03;4947400;29;20030;-81
2023/09/27 06:52:34;;;;;;;11.10;8.45;;;;;;;12.65;100.00;101875.94;4948422;29;20483;-81
2023/09/27 06:55:00;;;;;;;11.50;8.60;;;;;;;12.72;100.00;101873.19;4943024;29;20023;-82
2023/09/27 06:57:25;;;;;;;10.25;8.55;;;;;;;12.82;100.00;101883.50;4954747;28;20046;-81
2023/09/27 06:59:50;;;;;;;11.38;8.50;;;;;;;12.90;100.00;101887.69;4947316;29;20055;-81
2023/09/27 07:02:16;;;;;;;10.85;8.77;;;;;;;12.97;100.00;101883.19;4951746;28;20019;-81
2023/09/27 07:04:42;;;;;;;15.50;9.65;;;;;;;13.02;100.00;101894.44;4953832;29;20023;-81
2023/09/27 07:07:08;;;;;;;12.85;9.73;;;;;;;13.06;100.00;101884.78;4954778;28;20019;-81
2023/09/27 07:09:34;;;;;;;12.80;9.15;;;;;;;13.12;100.00;101878.56;4954645;28;20386;-81
2023/09/27 07:11:59;;;;;;;11.75;9.43;;;;;;;13.17;100.00;101879.34;4950943;29;20015;-81
2023/09/27 07:14:24;;;;;;;12.85;10.00;;;;;;;13.25;100.00;101881.81;4936014;29;20035;-81
2023/09/27 07:16:50;;;;;;;12.40;10.05;;;;;;;13.31;100.00;101882.53;4940460;29;20391;-81
2023/09/27 07:19:17;;;;;;;12.25;10.30;;;;;;;13.35;100.00;101888.56;4942963;28;20022;-80
2023/09/27 07:21:42;;;;;;;12.00;10.48;;;;;;;13.39;100.00;101899.84;4944384;29;20023;-80
2023/09/27 07:24:09;;;;;;;13.35;10.27;;;;;;;13.42;100.00;101915.47;4953375;28;20070;-80
2023/09/27 07:26:35;;;;;;;15.00;10.00;;;;;;;13.43;100.00;101909.34;4952890;29;20607;-80
2023/09/27 07:29:00;;;;;;;12.18;9.43;;;;;;;13.46;100.00;101906.66;4954030;28;20114;-80
2023/09/27 07:31:26;;;;;;;14.52;9.77;;;;;;;13.48;100.00;101905.75;4954010;29;20027;-81
2023/09/27 07:33:54;;;;;;;11.70;9.80;;;;;;;13.51;100.00;101897.84;4952559;28;20131;-82
2023/09/27 07:36:22;;;;;;;12.68;9.75;;;;;;;13.54;100.00;101903.88;4937347;28;20019;-82
2023/09/27 07:38:47;;;;;;;12.07;9.13;;;;;;;13.57;100.00;101909.94;4934047;29;20030;-82
2023/09/27 07:41:15;;;;;;;11.60;9.13;;;;;;;13.60;100.00;101911.63;4935037;29;20441;-80
2023/09/27 07:43:40;;;;;;;12.45;9.80;;;;;;;13.62;100.00;101907.22;4940860;29;20035;-80
2023/09/27 07:46:06;;;;;;;13.55;9.90;;;;;;;13.65;100.00;101891.47;4953855;28;20114;-80
2023/09/27 07:48:34;;;;;;;12.52;9.52;;;;;;;13.66;100.00;101878.34;4950278;28;20702;-80
2023/09/27 07:51:00;;;;;;;11.50;9.65;;;;;;;13.70;100.00;101884.38;4952477;28;20081;-81
2023/09/27 07:53:25;;;;;;;12.07;9.68;;;;;;;13.73;100.00;101886.91;4949157;28;20023;-81
2023/09/27 07:55:51;;;;;;;13.15;10.32;;;;;;;13.76;100.00;101884.25;4948724;28;20490;-81
2023/09/27 07:58:16;;;;;;;12.38;10.60;;;;;;;13.81;100.00;101877.16;4943713;28;20043;-81
2023/09/27 08:00:43;;;;;;;13.60;9.60;;;;;;;13.87;100.00;101880.50;4947406;28;20075;-81
2023/09/27 08:03:09;;;;;;;14.18;10.30;;;;;;;13.92;100.00;101889.13;4948125;29;20606;-81
2023/09/27 08:05:43;;;;;;;11.45;9.77;;;;;;;13.95;100.00;101884.66;4950524;29;20070;-81
2023/09/27 08:08:10;;;;;;;12.00;9.73;;;;;;;14.04;100.00;101896.66;4953473;28;20475;-80
2023/09/27 08:10:35;;;;;;;11.77;10.27;;;;;;;14.10;100.00;101893.94;4953684;28;20023;-80
2023/09/27 08:13:01;;;;;;;13.13;9.98;;;;;;;14.17;100.00;101896.41;4952559;28;20039;-80
2023/09/27 08:15:28;;;;;;;12.45;10.45;;;;;;;14.24;100.00;101890.09;4948599;28;20074;-81
2023/09/27 08:17:53;;;;;;;13.48;10.20;;;;;;;14.30;100.00;101889.97;4933447;29;20019;-81
2023/09/27 08:20:18;;;;;;;12.93;10.60;;;;;;;14.37;100.00;101883.66;4934846;29;20380;-81
2023/09/27 08:22:44;;;;;;;13.00;10.32;;;;;;;14.45;100.00;101893.09;4933765;29;20510;-80
2023/09/27 08:25:16;;;;;;;13.00;10.43;;;;;;;14.51;100.00;101899.03;4950940;29;20023;-81
2023/09/27 08:27:42;;;;;;;13.13;9.65;;;;;;;14.60;100.00;101897.09;4949152;29;20038;-80
2023/09/27 08:30:09;;;;;;;13.20;10.82;;;;;;;14.65;100.00;101910.91;4938910;28;20023;-80
2023/09/27 08:32:34;;;;;;;12.13;10.35;;;;;;;14.71;100.00;101911.66;4935225;29;20060;-80
2023/09/27 08:35:00;;;;;;;12.10;10.55;;;;;;;14.77;100.00;101910.66;4964409;28;20071;-83
2023/09/27 08:37:27;;;;;;;12.20;10.55;;;;;;;14.83;100.00;101915.72;4937000;29;20028;-80
2023/09/27 08:39:53;;;;;;;14.10;10.90;;;;;;;14.89;100.00;101925.16;4943885;28;20031;-81
2023/09/27 08:42:19;;;;;;;11.48;10.18;;;;;;;14.94;100.00;101923.28;4934484;29;20019;-81
2023/09/27 08:44:47;;;;;;;11.45;9.43;;;;;;;15.01;100.00;101924.84;4941577;29;20019;-82
2023/09/27 08:47:12;;;;;;;11.60;9.38;;;;;;;15.09;100.00;101927.28;4934482;29;20475;-82
2023/09/27 08:49:38;;;;;;;13.55;9.63;;;;;;;15.16;100.00;101935.81;4949675;29;20031;-79
2023/09/27 08:52:06;;;;;;;13.90;9.90;;;;;;;15.24;100.00;101941.69;4953217;28;20043;-79
2023/09/27 08:54:32;;;;;;;12.45;9.65;;;;;;;15.31;100.00;101932.78;4946539;28;20082;-80
2023/09/27 08:56:58;;;;;;;11.73;9.65;;;;;;;15.40;99.15;101936.88;4943490;29;20446;-80
2023/09/27 08:59:24;;;;;;;13.57;9.73;;;;;;;15.46;98.66;101935.84;4935388;28;20035;-80
2023/09/27 09:01:52;;;;;;;12.70;9.48;;;;;;;15.53;98.57;101921.66;4946682;28;20046;-80
2023/09/27 09:04:17;;;;;;;12.07;9.70;;;;;;;15.62;99.96;101924.00;4948635;28;20074;-80
2023/09/27 09:06:43;;;;;;;10.98;9.60;;;;;;;15.70;100.00;101921.16;4944756;29;20040;-80
2023/09/27 09:09:12;;;;;;;12.00;9.65;;;;;;;15.76;100.00;101922.72;4937837;29;20127;-80
2023/09/27 09:11:47;;;;;;;12.60;9.95;;;;;;;15.85;100.00;101913.72;4946544;29;20033;-81
2023/09/27 09:14:16;;;;;;;11.38;10.18;;;;;;;15.93;99.90;101909.97;4948118;28;20027;-80
2023/09/27 09:16:47;;;;;;;13.82;9.75;;;;;;;16.02;99.87;101916.72;4955120;29;20054;-79
2023/09/27 09:19:25;;;;;;;15.85;10.70;;;;;;;16.12;99.91;101914.66;4950764;28;20059;-80
2023/09/27 09:21:57;;;;;;;12.20;10.38;;;;;;;16.22;100.00;101908.22;4955772;29;20417;-80
2023/09/27 09:24:22;;;;;;;11.80;9.68;;;;;;;16.29;98.17;101901.00;4942099;28;20043;-80
2023/09/27 09:27:03;;;;;;;13.02;8.80;;;;;;;16.34;96.59;101903.47;4953849;29;20023;-80
2023/09/27 09:29:44;;;;;;;12.18;8.90;;;;;;;16.42;97.47;101900.59;4946965;29;20118;-80
2023/09/27 09:32:10;;;;;;;12.75;8.60;;;;;;;16.47;96.99;101896.03;4955275;28;20045;-80
2023/09/27 09:34:47;;;;;;;10.32;8.88;;;;;;;16.52;96.96;101891.47;4947990;28;20043;-81
2023/09/27 09:37:19;;;;;;;12.07;9.07;;;;;;;16.58;97.63;101895.66;4952780;29;20067;-82
2023/09/27 09:39:46;;;;;;;11.18;8.75;;;;;;;16.62;96.67;101892.00;4948895;28;20038;-81
2023/09/27 09:42:12;;;;;;;11.50;9.18;;;;;;;16.66;96.61;101894.47;4942261;28;20030;-81
2023/09/27 09:44:38;;;;;;;10.93;9.35;;;;;;;16.72;96.91;101888.19;4953103;28;20109;-81
2023/09/27 09:47:11;;;;;;;10.77;8.93;;;;;;;16.77;95.17;101886.22;4955255;29;20135;-80
2023/09/27 09:49:37;;;;;;;10.93;8.80;;;;;;;16.81;95.73;101874.69;4941700;29;20039;-81
2023/09/27 09:52:06;;;;;;;10.80;9.05;;;;;;;16.84;94.70;101877.22;4955683;28;20493;-81
2023/09/27 09:54:37;;;;;;;11.68;9.43;;;;;;;16.89;93.89;101873.56;4956195;28;20039;-80
2023/09/27 09:57:05;;;;;;;11.73;8.50;;;;;;;16.94;94.38;101869.88;4955691;28;20039;-80
2023/09/27 09:59:38;;;;;;;10.93;8.45;;;;;;;17.01;94.91;101862.66;4952536;28;20151;-80
2023/09/27 10:02:18;;;;;;;10.13;8.35;;;;;;;17.08;93.68;101860.66;4955637;28;20023;-80
2023/09/27 10:04:45;;;;;;;10.60;7.65;;;;;;;17.15;92.89;101849.00;4954567;28;20503;-80
2023/09/27 10:07:14;;;;;;;9.10;7.30;;;;;;;17.23;90.96;101846.91;4954455;29;20058;-80
2023/09/27 10:09:41;;;;;;;9.15;7.20;;;;;;;17.32;89.98;101835.19;4954882;28;20031;-81
2023/09/27 10:12:07;;;;;;;9.52;7.57;;;;;;;17.43;89.72;101827.72;4954575;28;20118;-80
2023/09/27 10:14:32;;;;;;;8.80;6.90;;;;;;;17.55;88.70;101836.09;4954863;28;20049;-81
2023/09/27 10:16:58;;;;;;;8.90;7.05;;;;;;;17.65;88.47;101834.78;4940031;28;21542;-81
2023/09/27 10:19:28;;;;;;;8.30;6.25;;;;;;;17.75;87.23;101837.91;4937978;29;20039;-80
2023/09/27 10:22:04;;;;;;;8.80;6.75;;;;;;;17.84;86.76;101834.06;4936601;29;20023;-81
2023/09/27 10:24:29;;;;;;;8.98;6.78;;;;;;;17.90;87.78;101833.81;4937411;29;20036;-81
2023/09/27 10:26:54;;;;;;;9.30;7.20;;;;;;;17.95;87.18;101828.34;4952512;29;20431;-81
2023/09/27 10:29:21;;;;;;;8.90;6.45;;;;;;;18.01;85.78;101829.00;4953850;29;20098;-81
2023/09/27 10:31:56;;;;;;;8.73;6.57;;;;;;;18.10;86.43;101833.03;4950928;29;20483;-80
2023/09/27 10:34:24;;;;;;;8.75;6.38;;;;;;;18.17;85.71;101838.88;4954605;28;20522;-81
2023/09/27 10:36:49;;;;;;;9.23;6.95;;;;;;;18.22;84.92;101833.41;4940082;29;20539;-80
2023/09/27 10:39:15;;;;;;;7.82;6.63;;;;;;;18.27;83.69;101845.50;4937309;29;20177;-81
2023/09/27 10:41:53;;;;;;;7.75;6.15;;;;;;;18.33;85.39;101839.09;4940281;29;20081;-81
2023/09/27 10:44:31;;;;;;;8.23;6.32;;;;;;;18.37;83.22;101837.19;4944196;29;20544;-80
2023/09/27 10:46:58;;;;;;;7.50;6.43;;;;;;;18.38;83.23;101831.84;4954941;28;20031;-81
2023/09/27 10:49:38;;;;;;;8.35;6.28;;;;;;;18.44;84.18;101825.47;4949127;28;20083;-81
2023/09/27 10:52:14;;;;;;;8.02;6.00;;;;;;;18.51;84.77;101816.38;4941072;29;20027;-81
2023/09/27 10:54:39;;;;;;;8.23;5.75;;;;;;;18.57;84.05;101802.94;4955041;28;20383;-81
2023/09/27 10:57:06;;;;;;;8.20;5.65;;;;;;;18.64;84.89;101785.91;4942694;29;20024;-80
2023/09/27 10:59:31;;;;;;;7.90;5.97;;;;;;;18.71;83.00;101783.00;4954946;29;20035;-81
2023/09/27 11:01:58;;;;;;;7.65;5.72;;;;;;;18.77;84.54;101783.56;4952222;28;20034;-81
2023/09/27 11:04:25;;;;;;;7.97;6.18;;;;;;;18.84;84.76;101785.94;4944085;29;20390;-79
2023/09/27 11:06:51;;;;;;;8.70;5.85;;;;;;;18.90;84.08;101783.00;4943768;29;20078;-80
2023/09/27 11:09:20;;;;;;;6.65;5.47;;;;;;;18.93;83.86;101764.41;4950503;28;20051;-79
2023/09/27 11:11:50;;;;;;;7.07;5.82;;;;;;;18.99;86.49;101763.31;4947281;28;20024;-79
2023/09/27 11:14:32;;;;;;;8.70;6.20;;;;;;;19.03;84.14;101767.50;4949401;29;20028;-79
2023/09/27 11:17:25;;;;;;;7.38;5.88;;;;;;;19.04;84.57;101762.19;4954316;28;20031;-79